Time;durP1;ratioP1;P1;durP2;ratioP2;P2;SDS_P1;SDS_P2;PMS_P1;PMS_P2;Temp;Humidity;BMP_temperature;BMP_pressure;BME280_temperature;BME280_humidity;BME280_pressure;Samples;Min_cycle;Max_cycle;Signal;HPM_P1;HPM_P2
2024/03/18 00:02:19;;;;;;;8.15;5.25;;;;;;;13.66;56.80;98870.91;4923068;29;20038;-71
2024/03/18 00:04:44;;;;;;;8.70;5.20;;;;;;;13.65;56.57;98871.84;4955962;29;20089;-71
2024/03/18 00:07:10;;;;;;;7.45;5.68;;;;;;;13.62;56.66;98873.91;4907672;29;20266;-71
2024/03/18 00:09:38;;;;;;;9.10;5.80;;;;;;;13.55;56.73;98866.56;4907320;29;20062;-71
2024/03/18 00:12:04;;;;;;;9.63;5.65;;;;;;;13.53;56.83;98868.47;4923816;29;20479;-72
2024/03/18 00:14:29;;;;;;;9.05;5.38;;;;;;;13.53;56.66;98876.34;4906900;29;20039;-71
2024/03/18 00:16:55;;;;;;;7.75;5.38;;;;;;;13.51;56.81;98872.22;4907410;29;20046;-71
2024/03/18 00:19:24;;;;;;;7.55;5.55;;;;;;;13.46;56.90;98867.38;4906332;29;20059;-71
2024/03/18 00:21:49;;;;;;;7.88;5.55;;;;;;;13.45;56.79;98867.50;4938551;29;20058;-71
2024/03/18 00:24:15;;;;;;;8.07;5.45;;;;;;;13.44;57.06;98860.59;4938669;29;20494;-72
2024/03/18 00:26:40;;;;;;;7.55;5.28;;;;;;;13.39;56.93;98848.72;4922484;29;20074;-71
2024/03/18 00:29:06;;;;;;;8.85;5.55;;;;;;;13.41;57.00;98852.97;4922597;29;20487;-72
2024/03/18 00:31:31;;;;;;;6.78;5.15;;;;;;;13.38;56.82;98852.28;4938449;29;20032;-72
2024/03/18 00:33:57;;;;;;;9.73;5.43;;;;;;;13.37;56.92;98850.63;4938565;29;20454;-71
2024/03/18 00:36:23;;;;;;;9.88;5.35;;;;;;;13.37;56.82;98840.13;4938688;29;20066;-71
2024/03/18 00:38:49;;;;;;;9.10;5.57;;;;;;;13.30;56.59;98831.13;4937994;29;20043;-71
2024/03/18 00:44:03;;;;;;;7.90;5.40;;;;;;;13.28;56.81;98832.19;4955675;29;20060;-71
2024/03/18 00:46:28;;;;;;;8.65;5.25;;;;;;;13.30;56.91;98846.00;4937931;29;20062;-71
2024/03/18 00:48:54;;;;;;;6.30;4.63;;;;;;;13.27;57.17;98833.19;4922669;29;20031;-71
2024/03/18 00:51:20;;;;;;;7.78;5.15;;;;;;;13.25;56.92;98830.69;4906786;29;20090;-71
2024/03/18 00:53:46;;;;;;;7.13;4.97;;;;;;;13.25;57.07;98832.47;4938637;29;20497;-71
2024/03/18 00:56:11;;;;;;;6.88;5.03;;;;;;;13.24;56.91;98830.81;4922540;29;20031;-71
2024/03/18 00:58:37;;;;;;;7.00;4.97;;;;;;;13.22;56.97;98820.47;4922263;29;20091;-71
2024/03/18 01:01:03;;;;;;;6.68;4.85;;;;;;;13.16;56.88;98816.56;4906087;29;20042;-71
2024/03/18 01:03:29;;;;;;;6.88;4.93;;;;;;;13.15;56.95;98817.53;4922285;29;20034;-73
2024/03/18 01:05:55;;;;;;;6.75;4.95;;;;;;;13.18;57.03;98825.13;4906364;29;20039;-71
2024/03/18 01:08:21;;;;;;;6.88;5.15;;;;;;;13.14;57.06;98815.88;4922012;29;20035;-73
2024/03/18 01:10:48;;;;;;;7.43;5.07;;;;;;;13.18;57.10;98817.25;4906529;29;20137;-71
2024/03/18 01:13:14;;;;;;;6.57;4.40;;;;;;;13.14;56.92;98809.78;4938064;29;20023;-72
2024/03/18 01:15:40;;;;;;;7.07;4.78;;;;;;;13.16;57.10;98818.38;4921863;29;20632;-71
2024/03/18 01:18:06;;;;;;;5.28;4.05;;;;;;;13.16;57.09;98813.94;4922524;29;20031;-71
2024/03/18 01:20:33;;;;;;;7.72;4.93;;;;;;;13.14;57.03;98809.78;4905933;29;20039;-71
2024/03/18 01:22:59;;;;;;;7.05;4.88;;;;;;;13.13;57.05;98806.34;4921840;29;20047;-71
2024/03/18 01:25:25;;;;;;;8.40;4.57;;;;;;;13.12;57.22;98809.91;4937715;29;20042;-71
2024/03/18 01:27:51;;;;;;;6.55;4.50;;;;;;;13.06;57.01;98794.72;4921642;29;20130;-71
2024/03/18 01:30:18;;;;;;;5.20;4.03;;;;;;;13.05;56.78;98790.47;4936563;29;20479;-72
2024/03/18 01:32:43;;;;;;;5.68;4.20;;;;;;;13.07;56.89;98801.63;4906713;29;20079;-71
2024/03/18 01:35:19;;;;;;;6.60;4.22;;;;;;;13.01;56.79;98789.91;4905912;29;20486;-71
2024/03/18 01:37:45;;;;;;;6.55;4.65;;;;;;;13.01;56.96;98792.53;4939324;29;20468;-71
2024/03/18 01:40:10;;;;;;;5.88;4.40;;;;;;;13.00;56.79;98796.09;4921945;29;20035;-71
2024/03/18 01:42:37;;;;;;;8.10;4.65;;;;;;;12.99;56.93;98790.97;4905456;29;20035;-71
2024/03/18 01:45:03;;;;;;;6.28;4.30;;;;;;;12.98;57.00;98790.16;4937491;29;20055;-71
2024/03/18 01:47:29;;;;;;;8.15;4.15;;;;;;;12.99;56.84;98791.78;4922065;29;20059;-71
2024/03/18 01:49:54;;;;;;;7.32;4.00;;;;;;;12.97;56.93;98787.66;4921464;29;20562;-71
2024/03/18 01:52:20;;;;;;;6.63;4.40;;;;;;;13.00;56.65;98795.28;4921730;29;20046;-71
2024/03/18 01:54:47;;;;;;;6.55;3.90;;;;;;;13.01;56.45;98795.13;4921807;29;20036;-71
2024/03/18 01:57:12;;;;;;;7.05;4.18;;;;;;;13.02;56.78;98796.78;4921522;29;20035;-71
2024/03/18 01:59:38;;;;;;;5.78;4.43;;;;;;;13.00;56.83;98796.09;4937329;29;20439;-71
2024/03/18 02:02:03;;;;;;;6.45;3.83;;;;;;;13.02;56.62;98795.97;4921460;29;20035;-71
2024/03/18 02:04:30;;;;;;;6.30;4.03;;;;;;;13.01;56.77;98795.13;4921284;29;20506;-71
2024/03/18 02:06:55;;;;;;;8.13;4.25;;;;;;;12.98;56.47;98790.16;4921302;29;20042;-71
2024/03/18 02:09:24;;;;;;;6.40;4.05;;;;;;;12.99;56.69;98788.34;4905220;29;20127;-71
2024/03/18 02:11:50;;;;;;;5.65;4.10;;;;;;;13.03;56.54;98802.88;4906072;29;20502;-78
2024/03/18 02:14:17;;;;;;;6.40;4.07;;;;;;;13.01;56.61;98797.75;4905578;29;20059;-71
2024/03/18 02:16:42;;;;;;;6.20;4.00;;;;;;;13.02;56.55;98795.97;4921237;29;20115;-72
2024/03/18 02:19:08;;;;;;;5.55;3.92;;;;;;;13.03;56.43;98795.00;4937090;29;20031;-72
2024/03/18 02:21:34;;;;;;;6.22;4.05;;;;;;;13.00;56.43;98785.59;4935958;29;20051;-72
2024/03/18 02:24:00;;;;;;;5.55;4.13;;;;;;;13.04;56.30;98786.16;4936798;29;20074;-72
2024/03/18 02:26:25;;;;;;;6.63;4.40;;;;;;;13.05;56.44;98782.59;4936959;29;20038;-72
2024/03/18 02:28:51;;;;;;;8.32;4.90;;;;;;;13.02;56.22;98782.84;4954423;29;20090;-72
2024/03/18 02:31:17;;;;;;;5.72;4.28;;;;;;;13.02;56.32;98782.84;4936845;29;20031;-72
2024/03/18 02:33:44;;;;;;;6.10;4.28;;;;;;;13.07;56.58;98785.91;4921038;29;20530;-72
2024/03/18 02:36:09;;;;;;;7.03;4.63;;;;;;;13.06;56.22;98786.03;4954098;29;20032;-72
2024/03/18 02:38:35;;;;;;;6.47;4.57;;;;;;;13.01;56.33;98784.66;4936692;29;20063;-72
2024/03/18 02:41:00;;;;;;;7.53;4.65;;;;;;;13.01;56.39;98782.03;4937703;29;20062;-72
2024/03/18 02:43:26;;;;;;;6.65;4.55;;;;;;;13.06;56.30;98783.41;4924925;29;20035;-72
2024/03/18 02:45:52;;;;;;;6.75;4.53;;;;;;;13.05;56.42;98790.47;4957747;29;20042;-73
2024/03/18 02:48:18;;;;;;;6.55;4.05;;;;;;;13.00;56.29;98782.16;4957157;29;20031;-72
2024/03/18 02:50:44;;;;;;;8.43;4.72;;;;;;;13.02;56.44;98786.28;4908944;29;20027;-72
2024/03/18 02:53:09;;;;;;;8.07;4.75;;;;;;;12.99;56.48;98781.31;4924512;29;20039;-72
2024/03/18 02:55:35;;;;;;;9.10;4.90;;;;;;;12.99;56.41;98780.50;4957269;29;20028;-72
2024/03/18 02:58:00;;;;;;;8.18;5.20;;;;;;;12.98;56.36;98784.91;4908636;29;20097;-72
2024/03/18 03:00:26;;;;;;;7.55;4.68;;;;;;;13.01;56.54;98791.66;4940444;29;20035;-72
2024/03/18 03:02:52;;;;;;;7.75;4.70;;;;;;;13.01;56.17;98794.28;4908550;29;20035;-72
2024/03/18 03:05:17;;;;;;;7.00;4.90;;;;;;;12.98;56.49;98795.41;4940254;29;20035;-72
2024/03/18 03:07:43;;;;;;;7.00;4.38;;;;;;;12.97;56.34;98792.91;4924342;29;20110;-72
2024/03/18 03:10:09;;;;;;;7.53;4.88;;;;;;;12.96;56.29;98791.25;4940204;29;20118;-72
2024/03/18 03:12:34;;;;;;;7.50;4.80;;;;;;;12.89;56.49;98779.59;4908235;29;20032;-72
2024/03/18 03:15:00;;;;;;;7.45;5.10;;;;;;;12.93;56.54;98788.88;4924362;29;20071;-72
2024/03/18 03:17:26;;;;;;;8.82;5.88;;;;;;;12.86;56.24;98780.72;4940110;29;20422;-72
2024/03/18 03:19:52;;;;;;;14.40;7.47;;;;;;;12.84;56.56;98774.78;4908102;29;20063;-72
2024/03/18 03:22:21;;;;;;;13.35;7.53;;;;;;;12.85;56.62;98792.97;4908430;28;20534;-72
2024/03/18 03:24:49;;;;;;;12.70;8.23;;;;;;;12.83;56.14;98787.03;4924876;29;20380;-72
2024/03/18 03:27:15;;;;;;;13.63;8.90;;;;;;;12.77;56.59;98781.50;4924750;29;20043;-72
2024/03/18 03:29:41;;;;;;;13.30;9.15;;;;;;;12.76;56.84;98783.28;4924308;29;20134;-72
2024/03/18 03:32:07;;;;;;;14.40;9.32;;;;;;;12.73;56.76;98782.69;4939836;29;20462;-72
2024/03/18 03:34:32;;;;;;;15.43;9.77;;;;;;;12.69;56.60;98784.75;4956922;29;20490;-72
2024/03/18 03:36:58;;;;;;;15.18;9.35;;;;;;;12.62;56.60;98781.00;4908074;29;20043;-73
2024/03/18 03:39:24;;;;;;;17.38;9.57;;;;;;;12.61;56.65;98781.97;4939376;29;20065;-72
2024/03/18 03:41:49;;;;;;;16.40;9.77;;;;;;;12.58;57.02;98787.44;4923290;29;20047;-72
2024/03/18 03:44:15;;;;;;;15.05;9.65;;;;;;;12.54;57.17;98786.03;4923325;29;20047;-72
2024/03/18 03:46:40;;;;;;;17.27;9.35;;;;;;;12.46;57.26;98773.59;4956345;29;20075;-71
2024/03/18 03:49:06;;;;;;;14.30;8.82;;;;;;;12.34;57.36;98770.22;4956851;29;20036;-73
2024/03/18 03:51:31;;;;;;;13.48;9.63;;;;;;;12.38;56.96;98781.25;4939445;29;20418;-73
2024/03/18 03:53:57;;;;;;;14.15;9.05;;;;;;;12.31;57.36;98771.28;4937965;29;20407;-72
2024/03/18 03:56:26;;;;;;;16.02;9.80;;;;;;;12.29;57.23;98770.59;4923560;29;20038;-73
2024/03/18 03:58:52;;;;;;;12.77;9.32;;;;;;;12.29;57.38;98780.25;4907840;29;20043;-72
2024/03/18 04:01:21;;;;;;;14.43;9.43;;;;;;;12.25;57.52;98782.25;4923298;29;20066;-72
2024/03/18 04:03:46;;;;;;;14.15;9.48;;;;;;;12.22;57.47;98789.53;4939581;29;20107;-72
2024/03/18 04:06:12;;;;;;;15.43;8.85;;;;;;;12.15;57.53;98777.94;4939175;29;20151;-73
2024/03/18 04:08:37;;;;;;;14.68;9.32;;;;;;;12.14;57.82;98777.09;4938956;29;20487;-72
2024/03/18 04:11:03;;;;;;;14.95;9.23;;;;;;;12.11;57.56;98777.34;4956633;29;20035;-72
2024/03/18 04:13:28;;;;;;;16.67;8.63;;;;;;;12.06;57.69;98774.28;4923098;29;20086;-73
2024/03/18 04:15:55;;;;;;;14.13;9.32;;;;;;;12.02;57.53;98771.09;4939265;29;20047;-72
2024/03/18 04:18:21;;;;;;;13.30;8.75;;;;;;;12.03;57.56;98774.53;4938876;29;20027;-73
2024/03/18 04:20:48;;;;;;;14.68;8.45;;;;;;;11.95;57.57;98772.53;4922875;29;20054;-72
2024/03/18 04:23:14;;;;;;;11.73;8.07;;;;;;;11.97;57.57;98782.88;4907679;29;20528;-73
2024/03/18 04:25:40;;;;;;;14.25;8.45;;;;;;;11.94;57.55;98790.03;4914752;28;20035;-72
2024/03/18 04:28:08;;;;;;;12.82;8.43;;;;;;;11.97;57.33;98785.47;4907090;29;20039;-72
2024/03/18 04:30:34;;;;;;;15.50;8.27;;;;;;;12.00;57.41;98786.09;4939259;29;20058;-71
2024/03/18 04:33:01;;;;;;;11.93;7.45;;;;;;;11.97;57.37;98780.25;4906935;29;20035;-73
2024/03/18 04:35:26;;;;;;;10.70;7.57;;;;;;;11.91;57.33;98778.94;4939281;28;20031;-72
2024/03/18 04:37:54;;;;;;;12.73;7.65;;;;;;;11.95;57.28;98777.75;4938463;29;20117;-72
2024/03/18 04:40:19;;;;;;;14.23;7.30;;;;;;;12.44;55.92;98788.59;4923246;29;20031;-73
2024/03/18 04:42:45;;;;;;;10.77;7.50;;;;;;;12.85;54.91;98781.66;4938553;29;20027;-73
2024/03/18 04:45:12;;;;;;;10.27;6.75;;;;;;;13.36;53.63;98774.72;4923063;29;20090;-79
2024/03/18 04:47:39;;;;;;;13.48;7.07;;;;;;;13.91;56.30;98785.56;4954466;29;20070;-82
2024/03/18 04:50:10;;;;;;;13.65;6.47;;;;;;;14.61;52.96;98774.94;4954382;29;20062;-79
2024/03/18 04:52:36;;;;;;;7.72;4.85;;;;;;;15.68;65.11;98783.31;4955065;29;20039;-80
2024/03/18 04:55:03;;;;;;;10.07;4.75;;;;;;;16.10;57.04;98766.97;4906871;29;20049;-80
2024/03/18 04:57:28;;;;;;;10.20;5.28;;;;;;;16.52;54.98;98779.47;4923254;29;20415;-78
2024/03/18 04:59:54;;;;;;;11.55;5.47;;;;;;;16.08;55.39;98788.19;4957730;29;20031;-78
2024/03/18 05:02:19;;;;;;;8.48;4.80;;;;;;;17.10;59.73;98796.47;4958852;29;20395;-80
2024/03/18 05:04:45;;;;;;;12.00;5.95;;;;;;;18.04;52.15;98780.59;4957311;28;20043;-82
2024/03/18 05:07:10;;;;;;;9.38;6.13;;;;;;;18.73;49.60;98790.81;4938146;29;20094;-82
2024/03/18 05:09:36;;;;;;;11.52;6.00;;;;;;;19.56;49.56;98786.09;4938070;29;20030;-80
2024/03/18 05:12:01;;;;;;;12.45;6.60;;;;;;;20.24;45.96;98785.34;4937947;29;20043;-71
2024/03/18 05:14:27;;;;;;;12.63;7.43;;;;;;;20.78;44.24;98778.25;4954636;29;20027;-71
2024/03/18 05:16:52;;;;;;;11.35;7.70;;;;;;;21.34;42.41;98780.44;4953602;29;20039;-78
2024/03/18 05:19:18;;;;;;;16.60;8.80;;;;;;;21.78;41.06;98778.72;4953177;29;20535;-72
2024/03/18 05:21:43;;;;;;;14.57;8.27;;;;;;;22.29;39.66;98781.22;4935015;29;20091;-75
2024/03/18 05:24:09;;;;;;;11.60;8.40;;;;;;;22.75;38.28;98782.63;4918039;29;20091;-74
2024/03/18 05:26:34;;;;;;;12.00;8.15;;;;;;;23.10;37.28;98780.84;4919421;29;20038;-73
2024/03/18 05:29:00;;;;;;;14.00;8.32;;;;;;;23.71;36.36;98773.06;4934437;29;20047;-74
2024/03/18 05:31:29;;;;;;;12.10;8.35;;;;;;;24.13;35.58;98771.94;4952413;29;20043;-73
2024/03/18 05:33:54;;;;;;;18.20;8.63;;;;;;;24.61;34.27;98780.78;4919046;29;20043;-72
2024/03/18 05:36:20;;;;;;;12.48;8.52;;;;;;;25.11;33.32;98778.41;4936034;29;20030;-73
2024/03/18 05:38:45;;;;;;;16.00;9.00;;;;;;;25.53;32.66;98770.06;4905129;29;20035;-72
2024/03/18 05:41:11;;;;;;;17.13;8.35;;;;;;;25.93;31.71;98770.63;4937235;29;20491;-72
2024/03/18 05:43:36;;;;;;;15.98;7.97;;;;;;;26.36;30.94;98766.44;4937048;29;20122;-73
2024/03/18 05:46:02;;;;;;;13.13;7.97;;;;;;;26.83;29.94;98764.16;4953232;29;20031;-73
2024/03/18 05:48:28;;;;;;;11.95;7.40;;;;;;;27.24;29.54;98762.66;4937640;29;20035;-72
2024/03/18 05:50:55;;;;;;;13.10;7.18;;;;;;;27.62;29.01;98763.47;4921347;29;20034;-72
2024/03/18 05:53:20;;;;;;;8.85;6.65;;;;;;;27.95;28.13;98768.38;4906102;29;20038;-73
2024/03/18 05:55:46;;;;;;;13.10;7.00;;;;;;;28.28;27.35;98758.19;4952935;29;20482;-72
2024/03/18 05:58:11;;;;;;;11.27;6.00;;;;;;;28.60;27.06;98763.22;4952997;29;20031;-72
2024/03/18 06:00:37;;;;;;;8.70;5.38;;;;;;;28.86;26.28;98756.53;4936785;29;20047;-73
2024/03/18 06:03:05;;;;;;;7.57;3.78;;;;;;;29.16;29.83;98756.38;4921000;29;20046;-74
2024/03/18 06:05:30;;;;;;;5.18;3.40;;;;;;;29.25;31.18;98758.72;4921622;29;20031;-76
2024/03/18 06:07:56;;;;;;;12.10;3.17;;;;;;;29.40;31.85;98759.03;4921146;29;20494;-74
2024/03/18 06:10:21;;;;;;;9.32;2.95;;;;;;;29.54;31.71;98764.91;4921069;29;20438;-74
2024/03/18 06:12:49;;;;;;;13.55;3.35;;;;;;;29.65;31.62;98764.06;4921315;29;20031;-75
2024/03/18 06:15:14;;;;;;;8.75;3.90;;;;;;;29.72;30.54;98763.91;4906782;29;20030;-79
2024/03/18 06:17:40;;;;;;;9.27;3.80;;;;;;;29.72;30.88;98772.78;4952930;29;20039;-77
2024/03/18 06:20:07;;;;;;;10.88;3.78;;;;;;;29.75;30.96;98769.63;4937411;29;20475;-74
2024/03/18 06:22:38;;;;;;;10.77;3.57;;;;;;;29.79;31.03;98769.97;4952671;28;20086;-76
2024/03/18 06:27:50;;;;;;;9.13;3.95;;;;;;;29.84;30.94;98767.41;4939545;29;20038;-76
2024/03/18 06:30:16;;;;;;;8.98;3.83;;;;;;;29.95;30.79;98765.69;4904895;29;20122;-74
2024/03/18 06:32:42;;;;;;;9.70;3.75;;;;;;;30.01;30.78;98767.41;4937124;29;20484;-74
2024/03/18 06:35:10;;;;;;;6.82;3.63;;;;;;;29.92;29.94;98760.78;4938452;29;20130;-78
2024/03/18 06:37:39;;;;;;;13.00;3.88;;;;;;;29.84;30.13;98758.50;4936606;29;20032;-75
2024/03/18 06:40:06;;;;;;;9.20;4.93;;;;;;;29.92;28.67;98748.16;4936697;29;20534;-74
2024/03/18 06:42:32;;;;;;;12.82;5.45;;;;;;;30.13;27.54;98752.00;4904956;29;20027;-73
2024/03/18 06:44:57;;;;;;;9.35;5.80;;;;;;;30.34;25.98;98746.94;4936515;29;20383;-73
2024/03/18 06:47:25;;;;;;;12.90;6.30;;;;;;;30.44;25.19;98743.59;4952404;29;20035;-74
2024/03/18 06:49:54;;;;;;;16.92;5.78;;;;;;;30.64;24.53;98743.91;4921783;29;20102;-73
2024/03/18 06:52:19;;;;;;;10.45;6.20;;;;;;;30.77;24.09;98740.03;4936898;29;20074;-73
2024/03/18 06:54:45;;;;;;;11.68;5.72;;;;;;;30.96;23.72;98731.63;4951902;29;20475;-74
2024/03/18 06:57:10;;;;;;;9.52;5.40;;;;;;;31.15;23.51;98743.78;4920600;29;20178;-74
2024/03/18 06:59:36;;;;;;;15.55;4.78;;;;;;;31.34;22.99;98724.56;4920690;29;20118;-73
2024/03/18 07:02:02;;;;;;;9.23;3.85;;;;;;;31.58;22.11;98729.69;4936155;29;20035;-73
2024/03/18 07:04:28;;;;;;;6.43;3.70;;;;;;;31.78;21.45;98729.06;4920722;29;20084;-72
2024/03/18 07:06:53;;;;;;;6.10;3.42;;;;;;;32.03;21.09;98729.28;4936358;28;20050;-74
2024/03/18 07:09:19;;;;;;;5.55;2.80;;;;;;;32.25;20.62;98726.50;4920457;29;20043;-73
2024/03/18 07:11:45;;;;;;;5.10;3.30;;;;;;;32.49;20.34;98718.00;4920480;29;20031;-73
2024/03/18 07:14:11;;;;;;;7.90;2.85;;;;;;;32.77;20.17;98726.84;4935925;29;20043;-75
2024/03/18 07:16:36;;;;;;;6.43;3.08;;;;;;;33.02;19.40;98722.63;4920045;29;20066;-74
2024/03/18 07:19:03;;;;;;;6.93;3.55;;;;;;;33.25;20.84;98729.50;4920037;29;20043;-76
2024/03/18 07:21:28;;;;;;;6.68;2.85;;;;;;;33.40;20.07;98716.00;4936270;29;20051;-75
2024/03/18 07:23:54;;;;;;;6.30;3.40;;;;;;;33.69;19.45;98719.00;4951990;28;20059;-74
2024/03/18 07:26:19;;;;;;;5.30;3.63;;;;;;;33.97;19.21;98716.91;4920081;29;20066;-74
2024/03/18 07:28:45;;;;;;;8.55;3.45;;;;;;;34.25;19.02;98712.00;4938472;29;20549;-73
2024/03/18 07:31:13;;;;;;;4.80;2.90;;;;;;;34.71;17.91;98708.38;4939621;29;20047;-73
2024/03/18 07:33:42;;;;;;;6.60;2.90;;;;;;;35.24;17.39;98694.34;4923930;29;20118;-74
2024/03/18 07:36:08;;;;;;;4.53;3.35;;;;;;;35.95;17.08;98697.69;4955634;29;20031;-72
2024/03/18 07:38:33;;;;;;;5.28;2.67;;;;;;;36.60;16.19;98694.59;4923927;29;20031;-73
2024/03/18 07:40:59;;;;;;;7.05;2.47;;;;;;;37.41;15.73;98688.41;4939911;29;20058;-75
2024/03/18 07:43:25;;;;;;;3.63;1.73;;;;;;;38.03;14.42;98693.66;4923754;29;20514;-74
2024/03/18 07:45:50;;;;;;;6.82;2.20;;;;;;;38.99;14.32;98680.41;4907577;29;20047;-75
2024/03/18 07:48:16;;;;;;;6.97;1.77;;;;;;;39.49;13.74;98679.53;4923672;29;20124;-74
2024/03/18 07:50:41;;;;;;;3.00;1.35;;;;;;;40.36;12.08;98677.38;4922882;29;20079;-75
2024/03/18 07:53:07;;;;;;;4.03;1.30;;;;;;;41.01;10.96;98664.84;4939545;29;20035;-77
2024/03/18 07:55:32;;;;;;;3.67;1.00;;;;;;;41.61;9.75;98658.88;4923142;29;20070;-75
2024/03/18 07:57:58;;;;;;;6.57;1.00;;;;;;;42.23;9.20;98660.38;4923664;29;20075;-74
2024/03/18 08:00:23;;;;;;;1.73;0.70;;;;;;;42.52;8.74;98656.81;4923490;29;20035;-74
2024/03/18 08:02:49;;;;;;;1.10;0.70;;;;;;;42.65;8.53;98664.03;4923180;29;20027;-75
2024/03/18 08:05:15;;;;;;;1.47;0.73;;;;;;;42.25;8.39;98667.09;4923262;29;20070;-74
2024/03/18 08:07:40;;;;;;;3.40;0.70;;;;;;;41.58;8.88;98654.88;4938876;29;20035;-74
2024/03/18 08:10:06;;;;;;;2.20;0.70;;;;;;;40.59;9.30;98658.16;4922595;29;20047;-75
2024/03/18 08:12:32;;;;;;;4.30;0.80;;;;;;;39.17;10.07;98659.53;4938737;29;20035;-75
2024/03/18 08:14:57;;;;;;;4.57;1.00;;;;;;;37.94;10.50;98649.13;4938316;29;20054;-75
2024/03/18 08:17:23;;;;;;;1.45;0.77;;;;;;;37.20;11.03;98645.13;4922947;29;20090;-75
2024/03/18 08:19:48;;;;;;;2.83;0.70;;;;;;;36.90;10.97;98651.81;4922587;29;20110;-75
2024/03/18 08:22:16;;;;;;;1.92;1.00;;;;;;;36.59;11.55;98641.31;4922862;28;20067;-78
2024/03/18 08:24:42;;;;;;;1.65;0.85;;;;;;;36.09;11.67;98648.91;4938916;29;20112;-75
2024/03/18 08:27:09;;;;;;;1.40;0.70;;;;;;;35.64;11.75;98646.31;4937825;29;20039;-75
2024/03/18 08:29:34;;;;;;;1.27;0.70;;;;;;;35.19;12.28;98630.06;4954286;29;20035;-75
2024/03/18 08:32:00;;;;;;;1.60;0.70;;;;;;;35.10;12.29;98635.25;4955405;29;20443;-75
2024/03/18 08:34:25;;;;;;;1.65;0.70;;;;;;;35.00;12.84;98638.06;4937990;29;20043;-75
2024/03/18 08:36:51;;;;;;;2.28;0.80;;;;;;;35.00;13.00;98637.22;4938579;29;20046;-76
2024/03/18 08:39:16;;;;;;;1.98;0.75;;;;;;;34.92;13.21;98633.22;4922004;29;20466;-75
2024/03/18 08:41:42;;;;;;;1.23;0.60;;;;;;;34.78;13.51;98633.81;4955892;29;20103;-76
2024/03/18 08:47:29;;;;;;;1.55;0.80;;;;;;;34.21;13.67;98638.59;4955590;29;20042;-75
2024/03/18 08:49:54;;;;;;;5.13;1.00;;;;;;;33.29;14.55;98647.56;4922322;29;20023;-76
2024/03/18 08:52:20;;;;;;;2.28;1.00;;;;;;;32.57;14.72;98641.88;4938319;29;20396;-76
2024/03/18 08:54:47;;;;;;;2.40;0.95;;;;;;;33.04;14.49;98626.66;4922055;29;20039;-78
2024/03/18 08:57:12;;;;;;;6.90;0.88;;;;;;;33.13;14.38;98627.75;4922538;29;20066;-74
2024/03/18 08:59:38;;;;;;;1.80;0.80;;;;;;;33.12;14.73;98611.78;4921873;29;20043;-76
2024/03/18 09:02:03;;;;;;;3.20;0.70;;;;;;;33.27;14.37;98608.31;4937906;29;20388;-75
2024/03/18 09:04:29;;;;;;;2.95;0.65;;;;;;;32.98;15.03;98608.78;4937578;29;20043;-74
2024/03/18 09:06:54;;;;;;;1.77;0.70;;;;;;;32.60;15.42;98611.63;4922355;28;20035;-75
2024/03/18 09:09:20;;;;;;;1.50;0.50;;;;;;;32.99;14.86;98594.22;4938177;29;20074;-75
2024/03/18 09:11:46;;;;;;;2.80;0.40;;;;;;;32.77;15.34;98597.94;4922363;29;20482;-74
2024/03/18 09:14:12;;;;;;;1.25;0.40;;;;;;;33.10;15.37;98600.41;4937751;29;20038;-76
2024/03/18 09:16:37;;;;;;;2.40;0.40;;;;;;;33.32;15.35;98592.09;4953635;29;20042;-75
2024/03/18 09:19:03;;;;;;;0.82;0.40;;;;;;;33.46;15.28;98581.53;4922328;29;20034;-74
2024/03/18 09:21:28;;;;;;;2.63;0.60;;;;;;;33.67;15.28;98577.75;4922505;29;20479;-76
2024/03/18 09:23:54;;;;;;;1.60;0.50;;;;;;;33.77;14.79;98581.56;4937579;29;20054;-75
2024/03/18 09:26:20;;;;;;;1.55;0.60;;;;;;;33.80;14.90;98573.69;4953866;29;20032;-75
2024/03/18 09:28:45;;;;;;;2.65;0.50;;;;;;;33.95;14.73;98575.53;4953219;29;20058;-75
2024/03/18 09:31:11;;;;;;;3.47;0.50;;;;;;;34.05;14.92;98570.13;4953492;29;20031;-75
2024/03/18 09:33:36;;;;;;;1.40;0.50;;;;;;;34.23;14.78;98565.22;4921387;29;20031;-76
2024/03/18 09:36:03;;;;;;;0.60;0.40;;;;;;;34.25;14.58;98549.47;4921588;29;20034;-75
2024/03/18 09:38:29;;;;;;;7.22;0.73;;;;;;;33.93;15.11;98561.47;4937728;29;20043;-75
2024/03/18 09:40:59;;;;;;;4.00;0.50;;;;;;;33.30;15.27;98553.69;4921882;29;20039;-75
2024/03/18 09:43:25;;;;;;;2.47;0.70;;;;;;;33.61;15.08;98553.69;4921303;29;20027;-75
2024/03/18 09:45:52;;;;;;;1.30;0.50;;;;;;;33.66;15.08;98546.34;4921431;29;20479;-74
2024/03/18 09:48:18;;;;;;;1.65;0.50;;;;;;;33.81;14.79;98560.97;4937578;29;20035;-75
2024/03/18 09:50:43;;;;;;;1.65;0.50;;;;;;;33.68;15.13;98548.78;4936704;29;20058;-74
2024/03/18 09:53:14;;;;;;;2.00;0.50;;;;;;;33.07;16.03;98568.53;4937438;29;20058;-75
2024/03/18 09:55:40;;;;;;;5.47;0.50;;;;;;;32.66;15.85;98546.81;4922274;29;20410;-74
2024/03/18 09:58:14;;;;;;;1.65;0.50;;;;;;;31.85;16.06;98549.69;4936894;29;20031;-75
2024/03/18 10:00:40;;;;;;;5.05;0.70;;;;;;;31.49;16.32;98538.63;4905867;29;20032;-75
2024/03/18 10:03:13;;;;;;;1.40;0.70;;;;;;;31.29;16.93;98560.03;4936074;29;20046;-75
2024/03/18 10:05:39;;;;;;;1.35;0.38;;;;;;;31.64;16.22;98545.22;4922281;29;20027;-76
2024/03/18 10:08:06;;;;;;;0.60;0.30;;;;;;;31.71;16.61;98540.41;4921454;29;20031;-75
2024/03/18 10:10:32;;;;;;;2.83;0.50;;;;;;;31.55;16.72;98518.72;4937184;29;20041;-75
2024/03/18 10:12:58;;;;;;;1.42;0.40;;;;;;;31.77;16.72;98536.69;4921028;29;20027;-77
2024/03/18 10:15:23;;;;;;;1.30;0.50;;;;;;;31.82;16.89;98528.59;4921070;29;20031;-75
2024/03/18 10:17:50;;;;;;;1.55;0.50;;;;;;;31.79;16.95;98529.13;4937158;29;20035;-75
2024/03/18 10:20:18;;;;;;;2.58;0.80;;;;;;;31.68;17.07;98520.16;4920848;29;20090;-75
2024/03/18 10:22:48;;;;;;;1.50;0.50;;;;;;;31.41;17.28;98517.53;4920735;29;20055;-74
2024/03/18 10:25:16;;;;;;;1.50;0.57;;;;;;;31.42;17.11;98497.56;4937445;29;20051;-76
2024/03/18 10:27:42;;;;;;;0.93;0.40;;;;;;;31.43;17.23;98509.97;4936832;29;20039;-76
2024/03/18 10:30:12;;;;;;;1.00;0.40;;;;;;;31.03;17.79;98503.22;4905253;29;20135;-75
2024/03/18 10:32:38;;;;;;;0.77;0.40;;;;;;;30.60;17.78;98507.59;4922061;29;20037;-76
2024/03/18 10:35:04;;;;;;;1.95;0.65;;;;;;;30.76;17.89;98508.56;4952698;29;20019;-78
2024/03/18 10:37:30;;;;;;;0.85;0.40;;;;;;;30.65;17.84;98497.69;4920941;29;20042;-76
2024/03/18 10:40:05;;;;;;;0.65;0.40;;;;;;;30.58;17.67;98488.19;4920831;29;20107;-76
2024/03/18 10:42:34;;;;;;;2.10;0.55;;;;;;;30.57;17.94;98497.34;4936303;29;20135;-76
2024/03/18 10:45:17;;;;;;;3.30;0.65;;;;;;;30.51;18.40;98484.91;4921129;29;20126;-75
2024/03/18 10:47:45;;;;;;;1.63;0.57;;;;;;;30.44;18.45;98485.91;4936524;29;20043;-75
2024/03/18 10:50:15;;;;;;;1.25;0.60;;;;;;;30.41;18.33;98499.06;4952621;29;20027;-75
2024/03/18 10:52:41;;;;;;;1.60;0.65;;;;;;;30.35;18.34;98492.78;4953419;29;20085;-75
2024/03/18 10:55:20;;;;;;;0.90;0.50;;;;;;;30.25;18.10;98489.97;4936888;29;20542;-78
2024/03/18 10:57:54;;;;;;;1.38;0.50;;;;;;;30.12;18.37;98481.19;4952571;29;20039;-77
2024/03/18 11:00:20;;;;;;;1.05;0.40;;;;;;;29.97;18.18;98472.13;4920597;29;20458;-75
2024/03/18 11:03:01;;;;;;;3.20;0.47;;;;;;;29.85;18.67;98459.63;4937966;29;20039;-75
2024/03/18 11:05:28;;;;;;;6.30;0.50;;;;;;;29.72;18.64;98460.75;4924565;29;20372;-74
2024/03/18 11:08:01;;;;;;;2.15;0.63;;;;;;;29.64;18.95;98455.81;4908596;29;20035;-75
2024/03/18 11:10:30;;;;;;;2.47;0.50;;;;;;;29.53;19.00;98468.31;4939981;29;20050;-75
2024/03/18 11:13:08;;;;;;;1.75;0.50;;;;;;;29.40;19.26;98464.09;4923892;29;20042;-76
2024/03/18 11:15:34;;;;;;;0.90;0.50;;;;;;;29.25;19.16;98450.41;4939985;29;20126;-76
2024/03/18 11:18:05;;;;;;;1.58;0.60;;;;;;;29.10;19.45;98442.91;4939389;29;20050;-74
2024/03/18 11:20:30;;;;;;;1.73;0.60;;;;;;;28.97;19.29;98441.38;4939952;29;20517;-76
2024/03/18 11:22:58;;;;;;;0.88;0.47;;;;;;;28.83;19.60;98442.75;4923525;29;20055;-77
2024/03/18 11:25:28;;;;;;;1.08;0.40;;;;;;;28.65;19.81;98438.41;4940283;29;20498;-75
2024/03/18 11:27:55;;;;;;;4.88;0.70;;;;;;;28.50;19.65;98433.56;4955401;29;20032;-74
2024/03/18 11:30:33;;;;;;;2.97;0.68;;;;;;;28.36;19.55;98408.09;4939497;29;20042;-75
2024/03/18 11:33:07;;;;;;;4.25;0.70;;;;;;;28.20;19.61;98423.91;4955565;29;20042;-76
2024/03/18 11:35:34;;;;;;;0.82;0.40;;;;;;;27.97;19.83;98414.88;4955593;29;20111;-75
2024/03/18 11:37:59;;;;;;;2.45;0.50;;;;;;;27.84;20.19;98404.38;4939571;29;20046;-77